createdAt,value
2023-05-06T00:01:17.491Z,32.55
2023-05-06T00:04:03.214Z,33.35
2023-05-06T00:06:49.396Z,32.75
2023-05-06T00:09:34.676Z,35.13
2023-05-06T00:12:20.414Z,34.30
2023-05-06T00:15:06.261Z,34.30
2023-05-06T00:17:51.944Z,32.72
2023-05-06T00:20:37.229Z,32.47
2023-05-06T00:23:22.663Z,33.58
2023-05-06T00:26:11.116Z,32.72
2023-05-06T00:28:59.401Z,35.17
2023-05-06T00:31:45.381Z,35.13
2023-05-06T00:34:30.935Z,34.78
2023-05-06T00:37:16.426Z,33.97
2023-05-06T00:40:02.079Z,36.15
2023-05-06T00:42:47.497Z,37.65
2023-05-06T00:45:37.729Z,36.28
2023-05-06T00:48:23.386Z,37.88
2023-05-06T00:51:08.837Z,37.78
2023-05-06T00:53:54.004Z,36.75
2023-05-06T00:56:40.356Z,39.95
2023-05-06T00:59:25.868Z,41.60
2023-05-06T01:02:11.577Z,40.03
2023-05-06T01:04:57.106Z,42.53
2023-05-06T01:07:59.136Z,42.25
2023-05-06T01:10:56.740Z,42.97
2023-05-06T01:14:06.723Z,43.08
2023-05-06T01:16:57.596Z,44.60
2023-05-06T01:19:49.743Z,46.08
2023-05-06T01:22:37.631Z,46.47
2023-05-06T01:25:23.604Z,49.45
2023-05-06T01:28:11.750Z,49.30
2023-05-06T01:31:12.196Z,50.28
2023-05-06T01:34:26.229Z,49.00
2023-05-06T01:37:42.664Z,52.83
2023-05-06T01:40:30.488Z,52.33
2023-05-06T01:43:21.252Z,52.08
2023-05-06T01:46:09.615Z,55.38
2023-05-06T01:48:58.056Z,54.67
2023-05-06T01:51:50.933Z,58.28
2023-05-06T01:54:36.565Z,59.10
2023-05-06T01:57:21.934Z,56.42
2023-05-06T02:00:08.137Z,61.28
2023-05-06T02:02:57.491Z,63.95
2023-05-06T02:05:43.662Z,65.63
2023-05-06T02:08:33.021Z,66.82
2023-05-06T02:11:19.009Z,65.18
2023-05-06T02:14:06.091Z,66.55
2023-05-06T02:16:52.391Z,67.80
2023-05-06T02:19:39.648Z,66.50
2023-05-06T02:22:25.664Z,65.68
2023-05-06T02:25:11.217Z,68.93
2023-05-06T02:28:03.280Z,66.75
2023-05-06T02:30:51.412Z,71.43
2023-05-06T02:33:36.709Z,69.03
2023-05-06T02:36:22.596Z,76.65
2023-05-06T02:39:08.416Z,71.35
2023-05-06T02:41:54.312Z,70.00
2023-05-06T02:44:39.605Z,74.47
2023-05-06T02:47:24.708Z,76.50
2023-05-06T02:50:12.731Z,78.38
2023-05-06T02:52:58.511Z,81.03
2023-05-06T02:55:43.693Z,81.78
2023-05-06T02:58:29.271Z,80.55
2023-05-06T03:01:14.731Z,81.18
2023-05-06T03:03:59.903Z,81.47
2023-05-06T03:06:45.628Z,79.07
2023-05-06T03:09:34.060Z,89.35
2023-05-06T03:12:22.271Z,89.10
2023-05-06T03:15:08.700Z,86.97
2023-05-06T03:17:55.675Z,89.32
2023-05-06T03:20:41.805Z,94.57
2023-05-06T03:23:27.412Z,89.50
2023-05-06T03:26:13.641Z,91.07
2023-05-06T03:29:02.637Z,93.10
2023-05-06T03:31:51.394Z,89.40
2023-05-06T03:34:37.976Z,90.07
2023-05-06T03:37:24.017Z,91.43
2023-05-06T03:40:13.382Z,92.45
2023-05-06T03:42:58.961Z,92.70
2023-05-06T03:45:46.029Z,91.78
2023-05-06T03:48:31.542Z,90.15
2023-05-06T03:51:17.140Z,86.90
2023-05-06T03:54:03.757Z,89.70
2023-05-06T03:56:51.184Z,92.10
2023-05-06T03:59:37.040Z,88.78
2023-05-06T04:02:24.402Z,86.35
2023-05-06T04:05:10.682Z,80.75
2023-05-06T04:07:56.447Z,85.03
2023-05-06T04:10:42.258Z,82.05
2023-05-06T04:13:35.478Z,80.30
2023-05-06T04:16:29.573Z,82.30
2023-05-06T04:19:17.476Z,75.75
2023-05-06T04:22:03.748Z,72.40
2023-05-06T04:24:49.468Z,71.22
2023-05-06T04:27:37.106Z,62.15
2023-05-06T04:30:24.704Z,61.53
2023-05-06T04:33:10.244Z,60.65
2023-05-06T04:35:56.697Z,56.60
2023-05-06T04:38:43.450Z,55.67
2023-05-06T04:41:31.044Z,54.15
2023-05-06T04:44:16.793Z,49.67
2023-05-06T04:47:04.675Z,48.97
2023-05-06T04:49:52.989Z,45.67
2023-05-06T04:52:39.269Z,43.17
2023-05-06T04:55:25.338Z,42.67
2023-05-06T04:58:12.307Z,40.97
2023-05-06T05:00:58.172Z,38.47
2023-05-06T05:03:43.806Z,36.72
2023-05-06T05:06:29.380Z,36.17
2023-05-06T05:09:14.934Z,34.88
2023-05-06T05:12:03.243Z,33.38
2023-05-06T05:14:52.292Z,33.25
2023-05-06T05:17:37.847Z,32.08
2023-05-06T05:20:24.669Z,29.42
2023-05-06T05:23:10.304Z,28.88
2023-05-06T05:26:02.765Z,30.75
2023-05-06T05:28:48.471Z,29.08
2023-05-06T05:31:34.732Z,28.48
2023-05-06T05:34:20.944Z,26.73
2023-05-06T05:37:08.502Z,26.75
2023-05-06T05:39:54.283Z,26.33
2023-05-06T05:42:40.554Z,24.35
2023-05-06T05:45:34.759Z,23.83
2023-05-06T05:48:20.498Z,24.15
2023-05-06T05:51:06.202Z,23.67
2023-05-06T05:53:52.321Z,24.02
2023-05-06T05:56:39.901Z,23.42
2023-05-06T05:59:25.979Z,23.45
2023-05-06T06:02:14.044Z,22.95
2023-05-06T06:05:00.582Z,23.15
2023-05-06T06:07:46.207Z,23.20
2023-05-06T06:10:32.911Z,23.05
2023-05-06T06:13:22.188Z,22.77
2023-05-06T06:16:08.290Z,22.67
2023-05-06T06:18:54.804Z,21.23
2023-05-06T06:21:40.152Z,22.23
2023-05-06T06:24:25.864Z,22.10
2023-05-06T06:27:11.033Z,21.50
2023-05-06T06:29:56.493Z,20.17
2023-05-06T06:32:50.947Z,18.55
2023-05-06T06:35:36.449Z,16.30
2023-05-06T06:38:21.759Z,16.65
2023-05-06T06:41:12.874Z,16.58
2023-05-06T06:43:58.532Z,17.40
2023-05-06T06:46:47.329Z,17.98
2023-05-06T06:49:32.560Z,18.08
2023-05-06T06:52:19.287Z,19.45
2023-05-06T06:55:08.501Z,17.92
2023-05-06T06:57:54.052Z,18.83
2023-05-06T07:00:39.534Z,19.20
2023-05-06T07:03:24.806Z,20.15
2023-05-06T07:06:10.310Z,21.35
2023-05-06T07:08:56.292Z,19.60
2023-05-06T07:11:41.675Z,19.75
2023-05-06T07:14:32.521Z,19.20
2023-05-06T07:17:18.165Z,17.33
2023-05-06T07:20:03.852Z,19.17
2023-05-06T07:22:49.234Z,18.92
2023-05-06T07:25:35.504Z,17.48
2023-05-06T07:28:21.238Z,17.85
2023-05-06T07:31:07.243Z,18.30
2023-05-06T07:33:52.559Z,16.88
2023-05-06T07:36:41.047Z,16.98
2023-05-06T07:39:26.715Z,16.70
2023-05-06T07:42:13.209Z,15.55
2023-05-06T07:44:59.018Z,15.02
2023-05-06T07:47:44.385Z,15.65
2023-05-06T07:50:29.916Z,15.10
2023-05-06T07:53:15.148Z,14.77
2023-05-06T07:56:02.247Z,14.57
2023-05-06T07:58:49.451Z,15.20
2023-05-06T08:01:34.796Z,15.35
2023-05-06T08:04:20.615Z,16.80
2023-05-06T08:07:05.715Z,15.55
2023-05-06T08:09:51.320Z,16.00
2023-05-06T08:12:38.153Z,14.93
2023-05-06T08:15:23.783Z,15.68
2023-05-06T08:18:20.876Z,14.57
2023-05-06T08:21:08.067Z,16.00
2023-05-06T08:23:53.639Z,15.43
2023-05-06T08:26:39.224Z,15.52
2023-05-06T08:29:24.833Z,14.85
2023-05-06T08:32:16.444Z,13.93
2023-05-06T08:35:01.747Z,13.57
2023-05-06T08:37:47.367Z,13.18
2023-05-06T08:40:33.832Z,14.32
2023-05-06T08:43:21.566Z,11.98
2023-05-06T08:46:07.230Z,13.50
2023-05-06T08:48:53.339Z,14.20
2023-05-06T08:51:39.050Z,12.80
2023-05-06T08:54:27.845Z,12.52
2023-05-06T08:57:14.579Z,11.55
2023-05-06T08:59:59.814Z,11.50
2023-05-06T09:02:45.489Z,10.93
2023-05-06T09:05:31.160Z,11.55
2023-05-06T09:08:17.159Z,13.07
2023-05-06T09:11:02.873Z,7.40
2023-05-06T09:13:48.504Z,6.28
2023-05-06T09:16:33.937Z,9.75
2023-05-06T09:19:20.656Z,10.23
2023-05-06T09:22:06.439Z,11.45
2023-05-06T09:24:56.722Z,12.55
2023-05-06T09:27:46.021Z,11.88
2023-05-06T09:30:31.907Z,12.20
2023-05-06T09:33:17.410Z,11.38
2023-05-06T09:36:04.378Z,10.32
2023-05-06T09:38:50.288Z,11.77
2023-05-06T09:41:36.153Z,11.55
2023-05-06T09:44:24.137Z,12.32
2023-05-06T09:47:10.506Z,10.07
2023-05-06T09:50:01.936Z,10.93
2023-05-06T09:52:49.292Z,10.75
2023-05-06T09:55:35.359Z,12.02
2023-05-06T09:58:21.288Z,11.23
2023-05-06T10:01:09.241Z,10.38
2023-05-06T10:03:55.979Z,10.90
2023-05-06T10:06:44.223Z,11.02
2023-05-06T10:09:33.340Z,10.48
2023-05-06T10:12:20.104Z,10.77
2023-05-06T10:15:08.141Z,12.27
2023-05-06T10:17:55.286Z,12.35
2023-05-06T10:20:42.450Z,13.20
2023-05-06T10:23:37.364Z,13.43
2023-05-06T10:26:23.219Z,14.57
2023-05-06T10:29:10.384Z,13.82
2023-05-06T10:31:57.384Z,14.30
2023-05-06T10:34:51.608Z,14.73
2023-05-06T10:37:38.864Z,15.55
2023-05-06T10:40:24.847Z,14.63
2023-05-06T10:43:25.312Z,15.63
2023-05-06T10:46:17.745Z,13.65
2023-05-06T10:49:06.787Z,11.52
2023-05-06T10:52:43.874Z,11.23
2023-05-06T10:55:34.492Z,9.98
2023-05-06T10:58:22.528Z,10.13
2023-05-06T11:01:14.151Z,10.38
2023-05-06T11:04:07.185Z,10.35
2023-05-06T11:06:53.797Z,8.43
2023-05-06T11:09:58.222Z,8.18
2023-05-06T11:12:52.913Z,7.68
2023-05-06T11:15:40.684Z,6.88
2023-05-06T11:18:29.475Z,7.38
2023-05-06T11:21:17.541Z,8.52
2023-05-06T11:24:02.971Z,6.93
2023-05-06T11:26:48.543Z,6.65
2023-05-06T11:29:37.554Z,7.60
2023-05-06T11:32:28.330Z,6.82
2023-05-06T11:35:14.193Z,6.50
2023-05-06T11:37:59.536Z,6.20
2023-05-06T11:40:44.997Z,6.03
2023-05-06T11:43:30.657Z,7.05
2023-05-06T11:46:18.028Z,6.25
2023-05-06T11:49:03.399Z,6.35
2023-05-06T11:51:49.730Z,5.43
2023-05-06T11:54:38.165Z,6.90
2023-05-06T11:57:24.820Z,6.88
2023-05-06T12:00:10.669Z,6.93
2023-05-06T12:02:57.651Z,5.88
2023-05-06T12:05:43.800Z,6.30
2023-05-06T12:08:36.168Z,6.18
2023-05-06T12:11:21.782Z,6.78
2023-05-06T12:14:10.228Z,5.45
2023-05-06T12:16:56.302Z,5.68
2023-05-06T12:19:41.928Z,5.18
2023-05-06T12:22:27.356Z,5.13
2023-05-06T12:25:14.367Z,5.63
2023-05-06T12:27:59.634Z,5.85
2023-05-06T12:30:46.816Z,6.30
2023-05-06T12:33:45.125Z,5.93
2023-05-06T12:36:32.659Z,5.30
2023-05-06T12:39:20.443Z,5.00
2023-05-06T12:42:06.632Z,5.18
2023-05-06T12:44:52.085Z,5.38
2023-05-06T12:47:37.750Z,6.13
2023-05-06T12:50:44.303Z,5.43
2023-05-06T12:53:34.689Z,5.88
2023-05-06T12:56:21.816Z,5.22
2023-05-06T12:59:07.823Z,5.32
2023-05-06T13:01:53.410Z,5.10
2023-05-06T13:04:40.839Z,5.43
2023-05-06T13:07:26.419Z,5.65
2023-05-06T13:10:11.821Z,5.10
2023-05-06T13:12:57.843Z,5.00
2023-05-06T13:15:43.475Z,5.07
2023-05-06T13:18:29.562Z,6.35
2023-05-06T13:21:15.658Z,5.32
2023-05-06T13:24:00.920Z,5.13
2023-05-06T13:26:47.103Z,4.20
2023-05-06T13:29:32.358Z,5.13
2023-05-06T13:32:18.588Z,4.85
2023-05-06T13:35:07.375Z,4.43
2023-05-06T13:37:52.780Z,4.30
2023-05-06T13:40:38.187Z,4.55
2023-05-06T13:43:25.046Z,5.00
2023-05-06T13:46:10.372Z,4.90
2023-05-06T13:48:55.910Z,4.43
2023-05-06T13:51:44.007Z,4.07
2023-05-06T13:54:29.409Z,4.20
2023-05-06T13:57:14.983Z,3.70
2023-05-06T14:00:00.774Z,3.70
2023-05-06T14:02:46.175Z,3.00
2023-05-06T14:05:32.654Z,3.22
2023-05-06T14:08:18.084Z,3.53
2023-05-06T14:11:03.529Z,3.38
2023-05-06T14:13:49.189Z,3.22
2023-05-06T14:16:34.713Z,3.40
2023-05-06T14:19:20.269Z,2.97
2023-05-06T14:22:05.577Z,3.45
2023-05-06T14:24:51.047Z,3.15
2023-05-06T14:27:36.677Z,3.55
2023-05-06T14:30:22.229Z,3.40
2023-05-06T14:33:08.766Z,3.40
2023-05-06T14:35:55.043Z,3.10
2023-05-06T14:38:43.507Z,3.42
2023-05-06T14:41:29.912Z,3.80
2023-05-06T14:44:15.675Z,3.72
2023-05-06T14:47:01.569Z,3.55
2023-05-06T14:49:46.864Z,3.95
2023-05-06T14:52:32.417Z,4.03
2023-05-06T14:55:18.007Z,3.80
2023-05-06T14:58:03.803Z,3.20
2023-05-06T15:00:49.733Z,3.70
2023-05-06T15:03:36.403Z,3.58
2023-05-06T15:06:21.971Z,2.80
2023-05-06T15:09:07.441Z,3.35
2023-05-06T15:11:53.009Z,2.90
2023-05-06T15:14:41.591Z,3.55
2023-05-06T15:17:27.262Z,3.03
2023-05-06T15:20:13.493Z,3.55
2023-05-06T15:22:59.261Z,4.00
2023-05-06T15:25:44.556Z,3.58
2023-05-06T15:28:30.142Z,3.50
2023-05-06T15:31:15.741Z,2.92
2023-05-06T15:34:01.157Z,3.70
2023-05-06T15:36:54.285Z,3.13
2023-05-06T15:39:42.508Z,3.28
2023-05-06T15:42:29.468Z,3.65
2023-05-06T15:45:14.880Z,3.55
2023-05-06T15:48:00.167Z,3.28
2023-05-06T15:50:45.795Z,4.07
2023-05-06T15:53:31.119Z,3.55
2023-05-06T15:56:18.914Z,3.60
2023-05-06T15:59:06.189Z,4.55
2023-05-06T16:02:25.562Z,3.70
2023-05-06T16:04:57.372Z,3.30
2023-05-06T16:07:43.476Z,3.75
2023-05-06T16:10:35.694Z,3.40
2023-05-06T16:13:21.599Z,3.58
2023-05-06T16:16:07.412Z,3.50
2023-05-06T16:18:52.830Z,2.80
2023-05-06T16:21:38.270Z,3.60
2023-05-06T16:24:23.929Z,3.50
2023-05-06T16:27:09.534Z,2.97
2023-05-06T16:29:55.548Z,3.88
2023-05-06T16:32:41.316Z,3.55
2023-05-06T16:35:29.398Z,3.42
2023-05-06T16:38:14.618Z,3.97
2023-05-06T16:41:00.178Z,3.38
2023-05-06T16:43:45.622Z,9.38
2023-05-06T16:46:31.230Z,11.77
2023-05-06T16:49:16.716Z,12.95
2023-05-06T16:52:02.404Z,13.13
2023-05-06T16:54:47.833Z,13.85
2023-05-06T16:57:33.659Z,13.30
2023-05-06T17:00:19.659Z,14.45
2023-05-06T17:03:05.020Z,14.38
2023-05-06T17:05:50.804Z,14.25
2023-05-06T17:08:37.199Z,12.13
2023-05-06T17:11:22.551Z,8.30
2023-05-06T17:14:08.250Z,8.50
2023-05-06T17:16:53.777Z,11.48
2023-05-06T17:19:39.170Z,13.30
2023-05-06T17:22:26.483Z,15.70
2023-05-06T17:25:13.235Z,17.95
2023-05-06T17:27:58.572Z,18.70
2023-05-06T17:30:44.458Z,20.35
2023-05-06T17:33:29.736Z,19.83
2023-05-06T17:36:18.079Z,19.75
2023-05-06T17:39:07.300Z,19.27
2023-05-06T17:41:53.193Z,17.35
2023-05-06T17:44:39.846Z,17.33
2023-05-06T17:47:25.156Z,16.83
2023-05-06T17:50:11.187Z,16.38
2023-05-06T17:52:56.892Z,17.48
2023-05-06T17:55:42.276Z,19.65
2023-05-06T17:58:27.767Z,19.98
2023-05-06T18:01:14.034Z,20.90
2023-05-06T18:03:59.342Z,19.92
2023-05-06T18:06:48.888Z,19.90
2023-05-06T18:09:35.785Z,19.17
2023-05-06T18:12:21.406Z,20.83
2023-05-06T18:15:07.905Z,21.90
2023-05-06T18:17:53.777Z,22.52
2023-05-06T18:20:39.809Z,21.30
2023-05-06T18:23:26.573Z,24.75
2023-05-06T18:26:31.728Z,26.52
2023-05-06T18:29:25.294Z,26.05
2023-05-06T18:32:10.834Z,25.80
2023-05-06T18:34:56.694Z,24.95
2023-05-06T18:37:42.161Z,25.88
2023-05-06T18:40:27.752Z,26.20
2023-05-06T18:43:13.156Z,27.60
2023-05-06T18:45:58.746Z,28.10
2023-05-06T18:48:45.157Z,30.23
2023-05-06T18:51:31.940Z,26.83
2023-05-06T18:54:17.692Z,30.48
2023-05-06T18:57:03.242Z,32.10
2023-05-06T18:59:48.815Z,32.35
2023-05-06T19:02:34.542Z,31.35
2023-05-06T19:05:20.537Z,29.98
2023-05-06T19:08:07.379Z,30.77
2023-05-06T19:10:52.849Z,28.13
2023-05-06T19:13:38.523Z,26.65
2023-05-06T19:16:24.160Z,25.63
2023-05-06T19:19:09.548Z,22.77
2023-05-06T19:21:55.260Z,22.77
2023-05-06T19:24:40.998Z,22.10
2023-05-06T19:27:26.552Z,20.75
2023-05-06T19:30:15.440Z,19.70
2023-05-06T19:33:02.106Z,19.45
2023-05-06T19:35:47.404Z,19.98
2023-05-06T19:38:33.194Z,21.80
2023-05-06T19:41:18.863Z,23.02
2023-05-06T19:44:04.692Z,23.90
2023-05-06T19:46:56.207Z,28.38
2023-05-06T19:49:41.469Z,30.48
2023-05-06T19:52:30.381Z,33.67
2023-05-06T19:55:16.593Z,34.88
2023-05-06T19:58:02.229Z,36.75
2023-05-06T20:00:47.578Z,34.47
2023-05-06T20:03:33.373Z,36.42
2023-05-06T20:06:21.934Z,35.53
2023-05-06T20:09:07.392Z,38.60
2023-05-06T20:11:52.773Z,40.22
2023-05-06T20:14:38.303Z,37.72
2023-05-06T20:17:23.967Z,37.00
2023-05-06T20:20:11.255Z,34.83
2023-05-06T20:22:56.832Z,32.92
2023-05-06T20:25:43.438Z,33.15
2023-05-06T20:28:32.249Z,32.65
2023-05-06T20:31:17.826Z,33.30
2023-05-06T20:34:03.331Z,32.78
2023-05-06T20:36:49.896Z,30.88
2023-05-06T20:39:35.648Z,26.90
2023-05-06T20:42:21.028Z,23.65
2023-05-06T20:45:07.210Z,23.55
2023-05-06T20:47:55.337Z,26.30
2023-05-06T20:50:43.928Z,25.90
2023-05-06T20:53:29.288Z,28.25
2023-05-06T20:56:20.666Z,26.63
2023-05-06T20:59:05.926Z,27.52
2023-05-06T21:01:52.121Z,27.40
2023-05-06T21:04:37.564Z,26.98
2023-05-06T21:07:23.230Z,25.10
2023-05-06T21:10:10.935Z,24.65
2023-05-06T21:12:56.468Z,23.23
2023-05-06T21:15:42.034Z,25.55
2023-05-06T21:18:28.359Z,25.92
2023-05-06T21:21:13.856Z,23.45
2023-05-06T21:24:00.057Z,25.10
2023-05-06T21:26:45.420Z,25.50
2023-05-06T21:29:30.740Z,24.73
2023-05-06T21:32:15.845Z,24.70
2023-05-06T21:35:02.687Z,24.63
2023-05-06T21:37:47.816Z,26.48
2023-05-06T21:40:33.375Z,26.92
2023-05-06T21:43:19.014Z,27.90
2023-05-06T21:46:04.541Z,26.60
2023-05-06T21:48:49.787Z,27.35
2023-05-06T21:51:36.455Z,27.80
2023-05-06T21:54:21.964Z,30.42
2023-05-06T21:57:08.982Z,30.48
2023-05-06T21:59:54.642Z,33.15
2023-05-06T22:02:40.524Z,34.95
2023-05-06T22:05:26.044Z,34.95
2023-05-06T22:08:11.578Z,37.10
2023-05-06T22:10:57.918Z,35.97
2023-05-06T22:13:43.134Z,37.40
2023-05-06T22:16:29.393Z,38.65
2023-05-06T22:19:19.330Z,39.22
2023-05-06T22:22:04.445Z,40.47
2023-05-06T22:24:49.928Z,40.22
2023-05-06T22:27:35.970Z,41.05
2023-05-06T22:30:21.293Z,40.80
2023-05-06T22:33:07.267Z,42.58
2023-05-06T22:35:52.715Z,45.35
2023-05-06T22:38:38.427Z,49.80
2023-05-06T22:41:23.810Z,50.28
2023-05-06T22:44:09.312Z,49.47
2023-05-06T22:46:54.972Z,49.90
2023-05-06T22:49:40.790Z,51.67
2023-05-06T22:52:26.052Z,50.47
2023-05-06T22:55:12.069Z,50.25
2023-05-06T22:57:57.425Z,47.70
2023-05-06T23:00:47.945Z,45.03
2023-05-06T23:03:34.659Z,44.45
2023-05-06T23:06:20.827Z,44.67
2023-05-06T23:09:06.875Z,44.63
2023-05-06T23:11:52.632Z,45.45
2023-05-06T23:14:38.264Z,45.40
2023-05-06T23:17:24.224Z,46.55
2023-05-06T23:20:11.879Z,47.92
2023-05-06T23:22:57.199Z,49.08
2023-05-06T23:25:43.462Z,51.25
2023-05-06T23:28:29.066Z,49.60
2023-05-06T23:31:16.015Z,48.13
2023-05-06T23:34:02.445Z,48.60
2023-05-06T23:36:48.027Z,46.97
2023-05-06T23:39:33.629Z,48.03
2023-05-06T23:42:19.562Z,46.60
2023-05-06T23:45:05.721Z,46.42
2023-05-06T23:47:51.130Z,44.95
2023-05-06T23:50:36.704Z,43.75
2023-05-06T23:53:22.067Z,44.25
2023-05-06T23:56:07.681Z,45.20
2023-05-06T23:58:52.970Z,42.70
